Time;durP1;ratioP1;P1;durP2;ratioP2;P2;SDS_P1;SDS_P2;PMS_P1;PMS_P2;Temp;Humidity;BMP_temperature;BMP_pressure;BME280_temperature;BME280_humidity;BME280_pressure;Samples;Min_cycle;Max_cycle;Signal;HPM_P1;HPM_P2
2021/05/25 00:00:15;;;;;;;6.63;2.30;;;9.20;84.50;;;;;;5021795;28;20107;-76
2021/05/25 00:02:42;;;;;;;5.00;1.88;;;9.20;84.60;;;;;;5025588;28;20404;-75
2021/05/25 00:05:09;;;;;;;6.45;2.08;;;9.30;84.60;;;;;;5019718;28;20030;-74
2021/05/25 00:07:35;;;;;;;4.45;1.80;;;9.30;84.90;;;;;;5025609;28;20101;-75
2021/05/25 00:10:01;;;;;;;7.05;2.10;;;9.40;84.90;;;;;;5015782;28;20058;-75
2021/05/25 00:12:27;;;;;;;5.43;2.08;;;9.40;85.00;;;;;;5025168;28;20511;-75
2021/05/25 00:14:53;;;;;;;5.72;2.63;;;9.40;84.80;;;;;;5001934;28;20033;-77
2021/05/25 00:17:18;;;;;;;5.72;2.30;;;9.50;84.90;;;;;;5013745;28;20083;-75
2021/05/25 00:19:44;;;;;;;6.03;2.47;;;9.50;85.10;;;;;;5018435;28;20064;-75
2021/05/25 00:22:12;;;;;;;6.10;2.38;;;9.50;85.30;;;;;;5032975;28;20040;-75
2021/05/25 00:24:37;;;;;;;6.93;2.40;;;9.50;85.60;;;;;;5024290;28;20026;-75
2021/05/25 00:27:03;;;;;;;5.97;2.63;;;9.50;86.00;;;;;;5023342;28;20033;-75
2021/05/25 00:29:29;;;;;;;5.35;2.55;;;9.50;86.10;;;;;;5022448;28;20041;-77
2021/05/25 00:31:55;;;;;;;6.65;2.50;;;9.50;86.10;;;;;;5019719;28;20051;-75
2021/05/25 00:34:20;;;;;;;4.72;2.60;;;9.50;86.20;;;;;;5012113;28;20045;-75
2021/05/25 00:36:46;;;;;;;9.60;2.70;;;9.50;86.10;;;;;;5018848;28;20024;-75
2021/05/25 00:39:12;;;;;;;6.35;2.42;;;9.50;86.00;;;;;;5022784;28;20048;-74
2021/05/25 00:41:37;;;;;;;6.70;2.47;;;9.40;85.90;;;;;;5019541;28;20072;-76
2021/05/25 00:44:08;;;;;;;6.35;2.63;;;9.50;86.10;;;;;;5026062;28;20451;-75
2021/05/25 00:46:34;;;;;;;8.55;2.80;;;9.50;86.10;;;;;;5024396;28;20436;-75
2021/05/25 00:49:00;;;;;;;7.45;2.33;;;9.50;85.90;;;;;;5027437;28;20065;-75
2021/05/25 00:51:26;;;;;;;6.57;2.22;;;9.50;86.00;;;;;;5026361;28;20037;-76
2021/05/25 00:53:52;;;;;;;5.63;2.80;;;9.50;86.10;;;;;;5026514;28;20037;-75
2021/05/25 00:56:17;;;;;;;6.15;2.55;;;9.50;85.90;;;;;;5027960;28;20040;-75
2021/05/25 00:58:43;;;;;;;6.35;2.38;;;9.50;86.20;;;;;;5029079;28;20048;-75
2021/05/25 01:01:09;;;;;;;6.05;2.35;;;9.50;86.10;;;;;;5013414;28;20045;-75
2021/05/25 01:03:38;;;;;;;5.75;2.88;;;9.50;86.20;;;;;;5020050;28;20054;-77
2021/05/25 01:06:03;;;;;;;4.75;2.55;;;9.50;86.10;;;;;;5029952;28;20036;-77
2021/05/25 01:08:29;;;;;;;6.20;2.80;;;9.50;86.10;;;;;;5029297;28;20041;-74
2021/05/25 01:11:05;;;;;;;5.07;2.40;;;9.50;86.00;;;;;;5030512;28;20054;-76
2021/05/25 01:13:39;;;;;;;6.47;2.60;;;9.50;86.30;;;;;;5007493;28;20037;-75
2021/05/25 01:16:05;;;;;;;8.15;2.80;;;9.50;86.60;;;;;;5013934;28;20061;-74
2021/05/25 01:18:32;;;;;;;6.43;3.08;;;9.50;86.50;;;;;;5020210;28;20037;-74
2021/05/25 01:20:58;;;;;;;7.03;2.63;;;9.50;86.50;;;;;;5020098;28;20076;-74
2021/05/25 01:23:24;;;;;;;7.45;2.72;;;9.60;86.80;;;;;;5015165;28;20029;-74
2021/05/25 01:25:50;;;;;;;5.57;2.97;;;9.60;86.60;;;;;;5018112;28;20425;-74
2021/05/25 01:28:19;;;;;;;6.07;3.08;;;9.50;86.60;;;;;;5004358;28;20539;-73
2021/05/25 01:30:47;;;;;;;9.15;3.10;;;9.50;86.40;;;;;;5011754;28;20117;-74
2021/05/25 01:33:13;;;;;;;6.93;2.83;;;9.60;86.60;;;;;;5024631;28;20038;-74
2021/05/25 01:35:40;;;;;;;7.85;2.95;;;9.60;86.50;;;;;;5021893;28;20045;-76
2021/05/25 01:38:08;;;;;;;7.28;2.65;;;9.60;86.50;;;;;;5028312;28;20084;-74
2021/05/25 01:40:35;;;;;;;6.43;2.53;;;9.60;86.60;;;;;;5024063;28;20036;-74
2021/05/25 01:43:01;;;;;;;6.45;2.65;;;9.60;86.60;;;;;;5007010;28;20369;-74
2021/05/25 01:45:29;;;;;;;6.22;2.45;;;9.60;86.60;;;;;;5029312;28;20542;-74
2021/05/25 01:47:57;;;;;;;8.82;3.20;;;9.60;86.40;;;;;;5024863;28;20064;-74
2021/05/25 01:50:25;;;;;;;5.00;2.05;;;9.70;86.10;;;;;;5030421;28;20043;-73
2021/05/25 01:52:57;;;;;;;9.57;2.47;;;9.60;86.40;;;;;;5027324;28;20342;-74
2021/05/25 01:55:42;;;;;;;6.05;2.55;;;9.70;86.10;;;;;;5031840;28;20041;-75
2021/05/25 01:58:11;;;;;;;9.05;2.60;;;9.70;85.90;;;;;;5033289;28;20558;-75
2021/05/25 02:00:40;;;;;;;7.93;3.00;;;9.60;85.80;;;;;;5019892;28;20482;-74
2021/05/25 02:03:06;;;;;;;7.93;2.83;;;9.60;86.40;;;;;;5021741;28;20029;-74
2021/05/25 02:05:34;;;;;;;8.15;2.72;;;9.60;86.30;;;;;;5029620;28;20026;-74
2021/05/25 02:08:00;;;;;;;10.20;3.05;;;9.60;86.50;;;;;;5027867;28;20037;-75
2021/05/25 02:10:28;;;;;;;6.90;2.90;;;9.60;86.30;;;;;;4999408;28;20052;-75
2021/05/25 02:12:56;;;;;;;8.60;3.38;;;9.60;86.60;;;;;;5016365;28;20084;-76
2021/05/25 02:15:22;;;;;;;9.48;3.60;;;9.60;86.50;;;;;;5021248;28;20113;-75
2021/05/25 02:17:48;;;;;;;10.02;4.03;;;9.60;86.30;;;;;;5019854;28;20108;-74
2021/05/25 02:20:14;;;;;;;8.98;3.95;;;9.50;86.20;;;;;;5019019;28;20058;-74
2021/05/25 02:22:40;;;;;;;10.63;4.60;;;9.60;86.20;;;;;;5017259;28;20155;-74
2021/05/25 02:25:06;;;;;;;10.00;4.32;;;9.50;86.20;;;;;;5012726;28;20158;-75
2021/05/25 02:27:32;;;;;;;13.50;5.80;;;9.60;86.20;;;;;;5022129;28;20033;-76
2021/05/25 02:29:58;;;;;;;12.57;4.88;;;9.60;86.40;;;;;;5027097;28;20080;-75
2021/05/25 02:32:24;;;;;;;10.90;5.43;;;9.60;86.30;;;;;;5019550;28;21053;-75
2021/05/25 02:34:50;;;;;;;9.77;5.38;;;9.50;86.20;;;;;;5026327;28;20026;-77
2021/05/25 02:37:15;;;;;;;11.60;5.32;;;9.60;86.30;;;;;;5017229;28;20041;-74
2021/05/25 02:39:41;;;;;;;11.18;5.22;;;9.60;86.10;;;;;;5016427;28;20037;-75
2021/05/25 02:42:07;;;;;;;11.60;5.75;;;9.50;86.30;;;;;;5008975;28;20112;-77
2021/05/25 02:44:32;;;;;;;11.60;5.75;;;9.60;86.40;;;;;;5024670;28;20068;-75
2021/05/25 02:46:58;;;;;;;10.60;5.80;;;9.60;86.50;;;;;;5016666;28;20052;-75
2021/05/25 02:49:24;;;;;;;12.25;6.10;;;9.60;86.40;;;;;;5026139;28;20065;-74
2021/05/25 02:51:49;;;;;;;11.75;6.82;;;9.60;86.70;;;;;;5024609;28;20091;-74
2021/05/25 02:54:15;;;;;;;12.10;7.90;;;9.60;86.80;;;;;;5006976;28;20072;-74
2021/05/25 02:56:41;;;;;;;12.23;6.97;;;9.50;87.20;;;;;;4998350;28;20446;-75
2021/05/25 02:59:06;;;;;;;11.15;7.43;;;9.50;87.20;;;;;;5009456;28;20482;-75
2021/05/25 03:01:32;;;;;;;11.27;7.30;;;9.40;87.40;;;;;;5023924;28;20033;-75
2021/05/25 03:03:58;;;;;;;13.75;8.27;;;9.50;87.60;;;;;;5011490;28;20045;-75
2021/05/25 03:06:24;;;;;;;11.77;8.10;;;9.50;87.80;;;;;;5019365;28;20487;-75
2021/05/25 03:08:50;;;;;;;13.60;9.40;;;9.50;87.90;;;;;;5022259;28;20045;-75
2021/05/25 03:11:16;;;;;;;13.57;9.50;;;9.40;88.00;;;;;;5028779;28;20029;-75
2021/05/25 03:13:41;;;;;;;12.88;10.13;;;9.40;88.00;;;;;;5027782;28;20025;-77
2021/05/25 03:16:07;;;;;;;16.95;10.48;;;9.40;88.20;;;;;;5024062;28;20069;-75
2021/05/25 03:18:33;;;;;;;15.10;10.85;;;9.50;88.20;;;;;;5027464;28;20117;-76
2021/05/25 03:20:58;;;;;;;18.63;11.93;;;9.50;88.20;;;;;;5024260;28;20541;-75
2021/05/25 03:23:24;;;;;;;15.75;11.77;;;9.50;88.20;;;;;;5028695;28;20504;-75
2021/05/25 03:25:52;;;;;;;15.35;11.70;;;9.50;88.10;;;;;;5024549;28;20041;-76
2021/05/25 03:28:18;;;;;;;16.38;12.40;;;9.50;88.10;;;;;;5027641;28;20041;-75
2021/05/25 03:30:44;;;;;;;18.33;12.65;;;9.50;88.30;;;;;;5020701;28;20030;-78
2021/05/25 03:33:10;;;;;;;17.13;12.27;;;9.50;88.10;;;;;;5023062;28;20041;-74
2021/05/25 03:35:36;;;;;;;15.82;12.80;;;9.60;88.30;;;;;;5025610;28;20455;-74
2021/05/25 03:38:03;;;;;;;18.13;13.50;;;9.50;88.30;;;;;;5025808;28;20057;-75
2021/05/25 03:40:28;;;;;;;16.35;13.52;;;9.50;88.50;;;;;;5028735;28;20465;-75
2021/05/25 03:42:55;;;;;;;19.00;13.48;;;9.60;88.70;;;;;;5026945;28;20082;-74
2021/05/25 03:45:22;;;;;;;20.23;14.13;;;9.60;88.70;;;;;;5027291;28;21865;-74
2021/05/25 03:47:49;;;;;;;17.95;13.90;;;9.60;88.70;;;;;;5023688;28;20084;-74
2021/05/25 03:50:16;;;;;;;18.33;13.32;;;9.60;88.60;;;;;;5027923;28;20470;-75
2021/05/25 03:52:47;;;;;;;17.83;14.25;;;9.60;88.60;;;;;;5024544;28;20064;-75
2021/05/25 04:00:54;;;;;;;17.65;14.75;;;9.60;88.80;;;;;;5014010;28;20402;-74
2021/05/25 04:03:20;;;;;;;21.77;15.18;;;9.70;88.70;;;;;;4999552;28;20092;-74
2021/05/25 04:05:46;;;;;;;19.52;15.30;;;9.70;88.80;;;;;;5020717;28;20042;-74
2021/05/25 04:08:13;;;;;;;20.33;15.10;;;9.70;88.80;;;;;;5001037;28;20117;-74
2021/05/25 04:10:39;;;;;;;19.02;14.15;;;9.70;88.70;;;;;;5012589;28;20041;-75
2021/05/25 04:13:04;;;;;;;19.40;14.73;;;9.70;88.80;;;;;;5020156;28;20033;-76
2021/05/25 04:15:30;;;;;;;19.40;14.63;;;9.80;88.60;;;;;;5020213;28;20639;-74
2021/05/25 04:17:56;;;;;;;20.38;14.18;;;9.80;88.50;;;;;;5022652;28;20111;-74
2021/05/25 04:20:23;;;;;;;20.02;13.25;;;9.80;88.40;;;;;;5019209;28;20049;-75
2021/05/25 04:22:49;;;;;;;16.83;13.18;;;9.90;88.40;;;;;;5013253;28;20054;-74
2021/05/25 04:25:15;;;;;;;16.92;12.38;;;9.90;88.40;;;;;;5017388;28;20061;-75
2021/05/25 04:27:41;;;;;;;19.48;13.57;;;9.90;88.20;;;;;;5023665;28;20101;-75
2021/05/25 04:30:08;;;;;;;15.70;12.27;;;9.90;88.30;;;;;;5021534;28;20128;-74
2021/05/25 04:32:35;;;;;;;17.17;13.00;;;9.80;87.60;;;;;;5024404;28;20083;-76
2021/05/25 04:35:00;;;;;;;19.05;14.73;;;9.70;88.00;;;;;;5021634;28;20410;-75
2021/05/25 04:37:26;;;;;;;19.63;15.25;;;9.80;88.10;;;;;;5003523;28;20033;-75
2021/05/25 04:39:52;;;;;;;20.38;14.45;;;9.80;88.20;;;;;;5004233;28;20061;-75
2021/05/25 04:42:18;;;;;;;21.85;17.80;;;9.80;88.10;;;;;;5017976;28;20034;-76
2021/05/25 04:44:43;;;;;;;19.85;17.75;;;9.80;87.80;;;;;;5028832;28;20025;-75
2021/05/25 04:47:09;;;;;;;20.88;17.63;;;9.80;87.90;;;;;;5025664;28;20404;-75
2021/05/25 04:49:38;;;;;;;21.50;17.08;;;9.80;87.80;;;;;;5024889;28;20100;-74
2021/05/25 04:52:04;;;;;;;22.27;16.60;;;9.80;87.70;;;;;;5023974;28;20044;-75
2021/05/25 04:54:30;;;;;;;22.50;18.55;;;9.80;87.60;;;;;;5013332;28;20026;-75
2021/05/25 04:56:56;;;;;;;21.98;16.45;;;9.80;87.70;;;;;;5026525;28;20041;-75
2021/05/25 04:59:21;;;;;;;19.80;15.25;;;9.70;87.70;;;;;;5022664;28;20133;-75
2021/05/25 05:01:47;;;;;;;20.77;14.75;;;9.60;88.30;;;;;;5026179;28;20284;-75
2021/05/25 05:04:13;;;;;;;17.45;12.23;;;9.70;88.40;;;;;;5019051;28;20038;-76
2021/05/25 05:06:38;;;;;;;15.07;11.38;;;9.70;88.20;;;;;;5028228;28;20478;-76
2021/05/25 05:09:04;;;;;;;17.85;11.43;;;9.70;88.40;;;;;;5024751;28;20045;-73
2021/05/25 05:11:31;;;;;;;15.73;11.38;;;9.70;88.40;;;;;;5024300;28;20044;-73
2021/05/25 05:13:57;;;;;;;19.00;10.88;;;9.70;88.30;;;;;;5024486;28;20046;-73
2021/05/25 05:16:23;;;;;;;18.85;10.73;;;9.70;88.40;;;;;;5018697;28;20029;-73
2021/05/25 05:18:49;;;;;;;16.27;10.27;;;9.70;88.40;;;;;;5018466;28;20070;-74
2021/05/25 05:21:14;;;;;;;15.05;10.48;;;9.70;88.70;;;;;;5023772;28;20060;-75
2021/05/25 05:23:40;;;;;;;20.27;9.93;;;9.70;88.50;;;;;;5023170;28;20425;-74
2021/05/25 05:26:06;;;;;;;12.70;8.32;;;9.70;88.40;;;;;;5024009;28;20030;-75
2021/05/25 05:28:32;;;;;;;13.45;8.38;;;9.70;88.10;;;;;;5024414;28;20028;-74
2021/05/25 05:30:58;;;;;;;13.75;7.63;;;9.70;87.80;;;;;;5018166;28;20030;-74
2021/05/25 05:33:23;;;;;;;13.32;6.22;;;9.70;87.80;;;;;;5027647;28;20254;-71
2021/05/25 05:35:49;;;;;;;9.00;4.43;;;9.80;87.60;;;;;;5018394;28;20041;-69
2021/05/25 05:38:16;;;;;;;8.82;4.13;;;9.80;86.90;;;;;;5017872;28;20030;-69
2021/05/25 05:40:42;;;;;;;8.38;3.88;;;9.70;86.90;;;;;;5026322;28;20388;-72
2021/05/25 05:43:08;;;;;;;8.02;4.40;;;9.60;86.80;;;;;;5017082;28;20466;-71
2021/05/25 05:45:35;;;;;;;8.57;3.75;;;9.70;86.40;;;;;;5012922;28;20030;-70
2021/05/25 05:48:00;;;;;;;8.48;3.70;;;9.70;86.40;;;;;;5014124;28;20079;-70
2021/05/25 05:50:26;;;;;;;9.55;4.50;;;9.80;86.50;;;;;;5019444;28;20069;-70
2021/05/25 05:52:52;;;;;;;9.82;4.20;;;9.90;86.50;;;;;;5016137;28;20076;-70
2021/05/25 05:55:18;;;;;;;8.20;5.50;;;9.90;86.40;;;;;;5027269;28;20024;-70
2021/05/25 05:57:46;;;;;;;9.95;5.97;;;9.80;86.30;;;;;;5013851;28;20029;-70
2021/05/25 06:00:13;;;;;;;14.02;6.90;;;9.90;86.60;;;;;;5020393;28;20037;-70
2021/05/25 06:02:39;;;;;;;13.85;7.57;;;10.00;86.40;;;;;;5021974;28;20117;-69
2021/05/25 06:05:06;;;;;;;10.93;7.85;;;10.20;86.30;;;;;;5019758;28;20121;-69
2021/05/25 06:07:31;;;;;;;11.55;7.95;;;10.20;86.20;;;;;;5020012;28;20507;-69
2021/05/25 06:09:58;;;;;;;12.63;7.22;;;10.20;86.30;;;;;;5019368;28;20489;-70
2021/05/25 06:12:24;;;;;;;13.35;6.95;;;10.20;86.70;;;;;;5024952;28;20076;-70
2021/05/25 06:14:50;;;;;;;14.30;7.57;;;10.30;86.70;;;;;;5003955;28;20279;-70
2021/05/25 06:17:15;;;;;;;17.95;7.50;;;10.40;86.70;;;;;;4997548;28;20595;-70
2021/05/25 06:19:41;;;;;;;13.23;6.85;;;10.50;86.70;;;;;;5006336;28;20080;-73
2021/05/25 06:22:07;;;;;;;19.05;6.45;;;10.70;86.30;;;;;;5022804;28;20072;-70
2021/05/25 06:24:32;;;;;;;13.23;5.65;;;10.70;85.50;;;;;;5019505;28;20469;-69
2021/05/25 06:26:58;;;;;;;12.40;5.55;;;10.80;85.00;;;;;;5002398;28;20073;-72
2021/05/25 06:29:23;;;;;;;11.43;5.80;;;10.90;84.60;;;;;;5004541;28;20046;-70
2021/05/25 06:31:49;;;;;;;9.70;4.85;;;11.00;84.00;;;;;;5018544;28;20037;-70
2021/05/25 06:34:15;;;;;;;10.50;5.05;;;11.00;83.80;;;;;;5022186;28;20393;-69
2021/05/25 06:36:40;;;;;;;10.60;4.50;;;11.00;83.80;;;;;;5024828;28;20030;-70
2021/05/25 06:39:06;;;;;;;11.13;4.45;;;10.90;83.70;;;;;;5022635;28;20034;-69
2021/05/25 06:41:32;;;;;;;9.80;4.40;;;10.90;83.90;;;;;;5023611;28;20045;-71
2021/05/25 06:43:57;;;;;;;14.13;4.45;;;10.90;83.60;;;;;;5023520;28;20080;-70
2021/05/25 06:46:23;;;;;;;12.02;4.82;;;10.90;82.80;;;;;;5031210;28;20026;-68
2021/05/25 06:48:48;;;;;;;10.52;4.03;;;11.10;82.60;;;;;;5019265;28;20042;-68
2021/05/25 06:51:14;;;;;;;14.43;4.55;;;11.20;82.20;;;;;;5010077;28;20033;-69
2021/05/25 06:53:40;;;;;;;11.52;4.43;;;11.40;81.50;;;;;;5015929;28;20365;-69
2021/05/25 06:56:06;;;;;;;9.38;3.53;;;11.40;81.20;;;;;;5011569;28;20033;-70
2021/05/25 06:58:32;;;;;;;10.43;4.00;;;11.50;81.00;;;;;;5020386;28;20030;-70
2021/05/25 07:00:58;;;;;;;12.05;4.07;;;11.70;80.90;;;;;;5017409;28;20288;-71
2021/05/25 07:03:24;;;;;;;11.88;3.95;;;11.70;79.80;;;;;;5017967;28;20043;-70
2021/05/25 07:05:50;;;;;;;9.23;3.83;;;11.70;80.20;;;;;;5019392;28;20041;-71
2021/05/25 07:08:15;;;;;;;11.20;3.58;;;12.00;79.20;;;;;;5018978;28;20065;-72
2021/05/25 07:10:41;;;;;;;10.10;3.88;;;12.10;79.90;;;;;;5020354;28;20076;-71
2021/05/25 07:13:11;;;;;;;9.90;3.88;;;12.30;78.70;;;;;;5017977;28;20041;-73
2021/05/25 07:15:37;;;;;;;12.07;4.20;;;12.60;79.00;;;;;;5017716;28;20032;-70
2021/05/25 07:18:03;;;;;;;10.60;4.05;;;12.70;77.50;;;;;;5015359;28;20049;-70
2021/05/25 07:20:29;;;;;;;11.07;3.67;;;12.90;77.60;;;;;;5019279;28;20057;-72
2021/05/25 07:22:55;;;;;;;9.35;3.75;;;12.90;77.00;;;;;;5021272;28;20032;-71
2021/05/25 07:25:22;;;;;;;6.80;3.50;;;12.90;76.20;;;;;;5015929;28;20152;-71
2021/05/25 07:27:48;;;;;;;13.77;3.72;;;12.90;75.60;;;;;;5002224;28;20038;-72
2021/05/25 07:30:14;;;;;;;7.95;3.40;;;13.10;75.80;;;;;;5008037;28;20445;-71
2021/05/25 07:32:40;;;;;;;13.15;3.60;;;13.10;74.40;;;;;;5017189;28;20033;-72
2021/05/25 07:35:06;;;;;;;10.82;3.40;;;13.10;75.90;;;;;;5017673;28;20116;-71
2021/05/25 07:37:33;;;;;;;9.88;3.72;;;13.20;74.90;;;;;;5006975;28;20065;-70
2021/05/25 07:39:59;;;;;;;7.32;3.00;;;13.20;74.00;;;;;;5015683;28;20047;-70
2021/05/25 07:42:25;;;;;;;9.65;3.95;;;13.30;74.10;;;;;;5015626;28;20404;-74
2021/05/25 07:44:52;;;;;;;12.45;3.00;;;13.20;73.90;;;;;;5024950;28;20045;-71
2021/05/25 07:47:17;;;;;;;11.45;3.00;;;13.50;74.40;;;;;;5030398;28;20688;-70
2021/05/25 07:49:43;;;;;;;9.20;3.58;;;13.50;73.80;;;;;;5011455;28;20073;-70
2021/05/25 07:52:09;;;;;;;6.88;3.00;;;13.80;71.50;;;;;;5007706;28;20096;-70
2021/05/25 07:54:34;;;;;;;8.77;3.40;;;14.00;72.90;;;;;;4997770;28;20042;-70
2021/05/25 07:57:00;;;;;;;13.30;4.13;;;14.10;71.30;;;;;;5002853;28;20104;-70
2021/05/25 07:59:26;;;;;;;8.50;3.88;;;14.10;70.50;;;;;;5000142;28;20050;-70
2021/05/25 08:01:53;;;;;;;10.07;3.42;;;14.20;70.80;;;;;;4997992;28;20056;-72
2021/05/25 08:04:19;;;;;;;9.02;3.38;;;14.30;71.00;;;;;;4998112;28;20034;-70
2021/05/25 08:06:45;;;;;;;8.23;2.95;;;14.40;69.70;;;;;;4998142;28;20045;-72
2021/05/25 08:09:10;;;;;;;8.15;2.60;;;14.20;70.90;;;;;;4999374;28;20124;-71
2021/05/25 08:11:36;;;;;;;8.27;2.20;;;14.40;70.30;;;;;;5005537;28;20041;-70
2021/05/25 08:14:05;;;;;;;7.65;2.45;;;14.90;68.80;;;;;;5021247;28;20032;-72
2021/05/25 08:16:33;;;;;;;7.45;2.40;;;14.40;68.90;;;;;;5019600;28;20061;-72
2021/05/25 08:21:43;;;;;;;6.53;2.50;;;14.30;67.90;;;;;;5014115;28;20040;-72
2021/05/25 08:24:10;;;;;;;10.82;2.72;;;14.10;69.40;;;;;;5015075;28;20030;-73
2021/05/25 08:26:39;;;;;;;8.98;2.78;;;14.00;70.00;;;;;;5016156;28;20037;-72
2021/05/25 08:29:05;;;;;;;8.48;3.15;;;13.90;71.10;;;;;;5017278;28;20085;-72
2021/05/25 08:31:31;;;;;;;7.45;2.97;;;13.70;70.50;;;;;;5017337;28;20042;-72
2021/05/25 08:33:57;;;;;;;6.53;2.10;;;13.60;71.10;;;;;;5018108;28;20096;-71
2021/05/25 08:36:23;;;;;;;7.80;2.53;;;13.80;71.10;;;;;;5016834;28;20033;-71
2021/05/25 08:38:48;;;;;;;11.80;2.53;;;13.70;71.70;;;;;;5018723;28;20033;-72
2021/05/25 08:41:14;;;;;;;7.10;2.60;;;13.60;71.60;;;;;;5011466;28;20080;-73
2021/05/25 08:43:41;;;;;;;10.40;2.60;;;13.80;71.00;;;;;;4998462;28;20185;-73
2021/05/25 08:46:07;;;;;;;7.07;2.78;;;14.10;69.30;;;;;;5008387;28;20156;-71
2021/05/25 08:48:36;;;;;;;7.72;2.60;;;14.60;68.90;;;;;;5018313;28;20396;-73
2021/05/25 08:51:02;;;;;;;8.18;2.25;;;14.80;68.70;;;;;;5017071;28;20037;-72
2021/05/25 08:53:29;;;;;;;10.13;2.75;;;15.00;67.70;;;;;;5016670;28;20366;-72
2021/05/25 08:55:56;;;;;;;6.45;2.60;;;15.30;65.00;;;;;;5018392;28;20076;-72
2021/05/25 08:58:23;;;;;;;10.18;2.58;;;15.60;65.20;;;;;;5018068;28;20458;-72
2021/05/25 09:00:52;;;;;;;8.30;2.70;;;15.90;64.30;;;;;;5012901;28;20108;-71
2021/05/25 09:03:19;;;;;;;5.65;2.40;;;16.30;63.10;;;;;;5004955;28;20030;-71
2021/05/25 09:05:57;;;;;;;8.73;2.35;;;16.30;60.90;;;;;;5003161;28;20065;-71
2021/05/25 09:08:23;;;;;;;7.65;2.53;;;15.90;62.60;;;;;;4996311;28;20046;-72
2021/05/25 09:10:52;;;;;;;7.40;2.30;;;15.60;64.00;;;;;;4998933;28;20038;-73
2021/05/25 09:13:23;;;;;;;9.60;2.17;;;15.30;66.00;;;;;;5010347;28;20042;-73
2021/05/25 09:15:58;;;;;;;9.10;2.58;;;14.80;68.80;;;;;;5019648;28;20443;-71
2021/05/25 09:18:29;;;;;;;8.05;2.50;;;14.50;67.80;;;;;;5017021;28;20049;-72
2021/05/25 09:20:57;;;;;;;10.27;2.97;;;13.70;69.70;;;;;;4998888;28;20477;-72
2021/05/25 09:23:43;;;;;;;11.80;3.25;;;13.80;71.80;;;;;;5002573;28;20037;-72
2021/05/25 09:26:44;;;;;;;8.00;3.22;;;13.70;72.20;;;;;;5018647;28;20059;-72
2021/05/25 09:29:12;;;;;;;9.85;3.47;;;13.80;73.60;;;;;;5028929;28;20033;-73
2021/05/25 09:31:39;;;;;;;11.00;3.33;;;14.00;74.30;;;;;;5022772;28;20041;-73
2021/05/25 09:34:22;;;;;;;9.45;3.45;;;14.20;74.40;;;;;;5019270;28;20037;-72
2021/05/25 09:37:05;;;;;;;11.18;3.10;;;14.60;74.20;;;;;;5022661;28;20037;-73
2021/05/25 09:39:40;;;;;;;8.80;3.22;;;14.80;73.70;;;;;;5003919;28;20055;-73
2021/05/25 09:42:09;;;;;;;7.70;2.30;;;15.00;71.60;;;;;;5024959;28;20099;-74
2021/05/25 09:44:36;;;;;;;8.30;2.38;;;15.00;71.50;;;;;;5023028;28;20072;-72
2021/05/25 09:47:05;;;;;;;10.32;2.42;;;15.10;69.80;;;;;;5020398;28;20033;-72
2021/05/25 09:49:32;;;;;;;9.15;2.40;;;15.10;68.70;;;;;;5021323;28;20048;-71
2021/05/25 09:52:08;;;;;;;9.45;2.28;;;14.80;65.80;;;;;;5019539;28;20039;-72
2021/05/25 09:54:35;;;;;;;9.63;2.20;;;14.50;65.90;;;;;;5021913;28;20028;-72
2021/05/25 09:57:05;;;;;;;8.63;2.40;;;14.50;67.40;;;;;;5016422;28;20043;-71
2021/05/25 09:59:33;;;;;;;12.45;2.65;;;14.50;66.70;;;;;;5001528;28;20115;-71
2021/05/25 10:02:19;;;;;;;11.93;2.65;;;14.50;66.50;;;;;;4995781;28;20482;-72
2021/05/25 10:05:01;;;;;;;7.30;2.20;;;14.30;65.40;;;;;;4999564;28;20081;-72
2021/05/25 10:07:28;;;;;;;8.65;2.10;;;14.30;67.20;;;;;;5013119;28;20452;-72
2021/05/25 10:09:57;;;;;;;8.82;2.50;;;14.40;66.40;;;;;;4996881;28;20038;-73
2021/05/25 10:12:26;;;;;;;8.43;2.58;;;14.50;66.10;;;;;;4998273;28;20045;-70
2021/05/25 10:14:52;;;;;;;9.93;2.20;;;14.70;64.40;;;;;;5017681;28;20061;-71
2021/05/25 10:17:42;;;;;;;10.10;2.67;;;14.80;64.80;;;;;;5016991;28;20124;-73
2021/05/25 10:20:07;;;;;;;11.65;2.70;;;15.00;64.10;;;;;;5018289;28;20354;-74
2021/05/25 10:22:34;;;;;;;10.20;2.50;;;15.00;63.80;;;;;;5019197;28;20033;-73
2021/05/25 10:25:02;;;;;;;10.00;2.38;;;15.40;63.20;;;;;;5020420;28;20041;-73
2021/05/25 10:27:29;;;;;;;9.75;1.98;;;15.60;62.00;;;;;;5018983;28;20033;-73
2021/05/25 10:29:55;;;;;;;8.55;2.15;;;15.80;61.70;;;;;;5017923;28;20045;-73
2021/05/25 10:32:23;;;;;;;9.18;2.22;;;16.00;62.00;;;;;;5019376;28;21858;-74
2021/05/25 10:34:53;;;;;;;8.18;1.70;;;15.70;60.80;;;;;;5019162;28;20100;-74
2021/05/25 10:37:20;;;;;;;9.18;2.53;;;15.70;61.50;;;;;;5021517;28;20057;-73
2021/05/25 10:39:52;;;;;;;7.50;1.65;;;15.80;60.30;;;;;;5021824;28;20038;-72
2021/05/25 10:44:51;;;;;;;8.15;1.73;;;15.40;59.10;;;;;;5021553;28;20040;-74
2021/05/25 10:47:26;;;;;;;7.72;2.05;;;15.10;60.30;;;;;;5019067;28;20041;-73
2021/05/25 10:49:53;;;;;;;5.82;1.55;;;15.20;59.60;;;;;;5012673;28;20050;-73
2021/05/25 10:52:19;;;;;;;7.57;1.55;;;15.30;57.80;;;;;;5001541;28;20057;-75
2021/05/25 10:54:47;;;;;;;7.43;2.10;;;15.30;56.60;;;;;;5018978;28;20113;-73
2021/05/25 10:57:58;;;;;;;8.43;2.00;;;15.50;58.90;;;;;;5021447;28;20038;-73
2021/05/25 11:00:32;;;;;;;5.30;1.58;;;15.90;57.70;;;;;;5015470;28;20066;-74
2021/05/25 11:03:19;;;;;;;5.82;1.95;;;16.10;57.00;;;;;;5016481;28;20473;-73
2021/05/25 11:06:03;;;;;;;5.68;1.75;;;15.80;58.30;;;;;;5010448;28;20041;-72
2021/05/25 11:08:39;;;;;;;9.98;2.13;;;15.80;59.60;;;;;;5016388;28;20465;-72
2021/05/25 11:11:15;;;;;;;6.60;1.88;;;15.80;59.30;;;;;;5018846;28;20045;-73
2021/05/25 11:13:51;;;;;;;8.32;2.15;;;16.20;58.50;;;;;;5017559;28;20041;-72
2021/05/25 11:16:27;;;;;;;7.22;1.83;;;16.30;58.80;;;;;;5016766;28;20041;-73
2021/05/25 11:19:22;;;;;;;9.93;2.15;;;16.50;58.10;;;;;;5019168;28;20093;-72
2021/05/25 11:24:32;;;;;;;8.50;2.58;;;16.90;58.20;;;;;;5021949;28;20033;-73
2021/05/25 11:27:00;;;;;;;11.07;2.17;;;16.60;59.50;;;;;;5015164;28;20500;-73
2021/05/25 11:29:29;;;;;;;7.72;1.85;;;16.60;57.80;;;;;;5015359;28;20188;-72
2021/05/25 11:31:59;;;;;;;8.10;2.00;;;16.30;61.70;;;;;;5015531;28;20071;-71
2021/05/25 11:34:26;;;;;;;9.30;2.13;;;16.10;62.20;;;;;;5014335;28;20037;-71
2021/05/25 11:37:01;;;;;;;7.20;1.67;;;16.00;62.10;;;;;;5015343;28;20049;-71
2021/05/25 11:39:29;;;;;;;7.60;1.90;;;16.10;60.00;;;;;;5019202;28;20049;-72
2021/05/25 11:41:56;;;;;;;6.65;1.95;;;16.40;61.10;;;;;;5016469;28;20033;-74
2021/05/25 11:44:33;;;;;;;10.65;1.88;;;16.50;61.40;;;;;;5016986;28;20041;-73
2021/05/25 11:47:04;;;;;;;6.65;2.03;;;16.70;58.30;;;;;;5019528;28;20037;-73
2021/05/25 11:49:36;;;;;;;7.35;2.25;;;16.80;58.70;;;;;;5019599;28;20042;-73
2021/05/25 11:52:19;;;;;;;8.57;1.83;;;16.80;58.50;;;;;;5018997;28;20026;-73
2021/05/25 11:54:46;;;;;;;8.52;2.00;;;16.20;59.80;;;;;;5021389;28;20040;-73
2021/05/25 11:57:34;;;;;;;6.88;2.17;;;15.90;58.10;;;;;;5020840;28;20044;-72
2021/05/25 12:00:11;;;;;;;8.60;1.77;;;16.20;57.10;;;;;;5019572;28;20157;-72
2021/05/25 12:02:38;;;;;;;8.38;1.85;;;16.30;55.30;;;;;;5000856;28;20125;-73
2021/05/25 12:05:05;;;;;;;6.32;1.98;;;16.50;56.40;;;;;;4997270;28;20060;-74
2021/05/25 12:07:31;;;;;;;10.95;3.05;;;16.10;57.90;;;;;;4998808;28;20393;-72
2021/05/25 12:09:59;;;;;;;7.03;1.98;;;16.00;59.50;;;;;;4998764;28;20069;-70
2021/05/25 12:12:27;;;;;;;8.23;1.92;;;15.90;58.80;;;;;;4998893;28;20038;-75
2021/05/25 12:14:53;;;;;;;8.70;2.13;;;16.10;57.50;;;;;;4998342;28;20044;-71
2021/05/25 12:17:24;;;;;;;7.25;2.13;;;16.50;58.90;;;;;;4999634;28;20478;-71
2021/05/25 12:19:54;;;;;;;10.35;2.30;;;16.80;57.80;;;;;;4996959;28;20125;-72
2021/05/25 12:22:36;;;;;;;11.23;2.55;;;17.20;56.80;;;;;;4996982;28;20172;-73
2021/05/25 12:25:29;;;;;;;8.13;2.15;;;17.00;56.70;;;;;;4997476;28;20034;-74
2021/05/25 12:28:07;;;;;;;12.10;3.17;;;16.60;57.30;;;;;;5013514;28;20522;-72
2021/05/25 12:30:33;;;;;;;10.05;2.38;;;16.50;58.20;;;;;;4996476;28;20049;-71
2021/05/25 12:32:59;;;;;;;12.48;2.80;;;16.60;58.40;;;;;;4998594;28;20128;-72
2021/05/25 12:35:27;;;;;;;7.75;2.53;;;16.50;59.00;;;;;;4995746;28;20137;-73
2021/05/25 12:38:23;;;;;;;9.65;2.05;;;16.50;59.30;;;;;;4995165;28;20441;-73
2021/05/25 12:41:00;;;;;;;9.98;1.95;;;16.80;57.30;;;;;;4999679;28;20045;-72
2021/05/25 12:43:29;;;;;;;4.40;1.70;;;16.80;58.20;;;;;;5011683;28;20046;-72
2021/05/25 12:46:08;;;;;;;6.22;1.80;;;16.60;56.80;;;;;;5007618;28;20172;-72
2021/05/25 12:48:39;;;;;;;6.90;1.92;;;16.60;58.50;;;;;;5015208;28;20042;-71
2021/05/25 12:51:09;;;;;;;5.97;1.60;;;16.80;57.20;;;;;;4996825;28;20041;-72
2021/05/25 12:53:49;;;;;;;8.32;1.98;;;16.50;56.60;;;;;;5023383;28;20030;-70
2021/05/25 12:56:21;;;;;;;4.80;1.40;;;16.20;58.50;;;;;;5020814;28;20041;-72
2021/05/25 12:58:48;;;;;;;5.15;1.90;;;16.60;58.90;;;;;;5020370;28;20072;-71
2021/05/25 13:01:32;;;;;;;7.13;2.28;;;16.60;58.40;;;;;;5028365;28;20381;-71
2021/05/25 13:04:03;;;;;;;9.15;2.47;;;16.60;59.90;;;;;;5023774;28;20050;-71